sensor_id;sensor_type;location;lat;lon;timestamp;P1;durP1;ratioP1;P2;durP2;ratioP2
4208;SDS011;36320;48.860;2.380;2023-02-15T00:00:38;21.45;;;6.10;;
4208;SDS011;36320;48.860;2.380;2023-02-15T00:03:04;18.73;;;6.33;;
4208;SDS011;36320;48.860;2.380;2023-02-15T00:05:30;16.80;;;5.05;;
4208;SDS011;36320;48.860;2.380;2023-02-15T00:07:57;17.67;;;5.25;;
4208;SDS011;36320;48.860;2.380;2023-02-15T00:10:23;22.50;;;6.63;;
4208;SDS011;36320;48.860;2.380;2023-02-15T00:12:49;22.48;;;5.30;;
4208;SDS011;36320;48.860;2.380;2023-02-15T00:15:15;16.83;;;5.67;;
4208;SDS011;36320;48.860;2.380;2023-02-15T00:17:41;21.90;;;6.07;;
4208;SDS011;36320;48.860;2.380;2023-02-15T00:20:07;18.10;;;6.03;;
4208;SDS011;36320;48.860;2.380;2023-02-15T00:22:33;20.88;;;5.78;;
4208;SDS011;36320;48.860;2.380;2023-02-15T00:24:59;16.45;;;5.85;;
4208;SDS011;36320;48.860;2.380;2023-02-15T00:27:25;17.08;;;4.93;;
4208;SDS011;36320;48.860;2.380;2023-02-15T00:29:51;19.52;;;4.75;;
4208;SDS011;36320;48.860;2.380;2023-02-15T00:32:17;19.97;;;6.30;;
4208;SDS011;36320;48.860;2.380;2023-02-15T00:34:44;15.43;;;5.03;;
4208;SDS011;36320;48.860;2.380;2023-02-15T00:37:10;19.50;;;5.22;;
4208;SDS011;36320;48.860;2.380;2023-02-15T00:39:36;16.25;;;5.47;;
4208;SDS011;36320;48.860;2.380;2023-02-15T00:42:02;19.55;;;6.20;;
4208;SDS011;36320;48.860;2.380;2023-02-15T00:44:28;18.92;;;6.47;;
4208;SDS011;36320;48.860;2.380;2023-02-15T00:46:54;21.83;;;7.18;;
4208;SDS011;36320;48.860;2.380;2023-02-15T00:49:20;20.23;;;6.07;;
4208;SDS011;36320;48.860;2.380;2023-02-15T00:51:46;19.77;;;6.10;;
4208;SDS011;36320;48.860;2.380;2023-02-15T00:54:12;22.55;;;6.00;;
4208;SDS011;36320;48.860;2.380;2023-02-15T00:56:38;18.40;;;5.80;;
4208;SDS011;36320;48.860;2.380;2023-02-15T00:59:04;26.77;;;5.68;;
4208;SDS011;36320;48.860;2.380;2023-02-15T01:01:30;23.17;;;6.60;;
4208;SDS011;36320;48.860;2.380;2023-02-15T01:03:56;19.77;;;6.45;;
4208;SDS011;36320;48.860;2.380;2023-02-15T01:06:22;14.35;;;4.85;;
4208;SDS011;36320;48.860;2.380;2023-02-15T01:08:48;26.00;;;6.10;;
4208;SDS011;36320;48.860;2.380;2023-02-15T01:11:15;19.10;;;5.77;;
4208;SDS011;36320;48.860;2.380;2023-02-15T01:13:47;15.00;;;5.47;;
4208;SDS011;36320;48.860;2.380;2023-02-15T01:16:13;15.50;;;5.47;;
4208;SDS011;36320;48.860;2.380;2023-02-15T01:18:39;19.70;;;5.60;;
4208;SDS011;36320;48.860;2.380;2023-02-15T01:21:12;18.58;;;5.63;;
4208;SDS011;36320;48.860;2.380;2023-02-15T01:23:39;19.85;;;5.95;;
4208;SDS011;36320;48.860;2.380;2023-02-15T01:26:06;19.10;;;6.28;;
4208;SDS011;36320;48.860;2.380;2023-02-15T01:28:32;15.27;;;6.75;;
4208;SDS011;36320;48.860;2.380;2023-02-15T01:30:58;26.25;;;6.88;;
4208;SDS011;36320;48.860;2.380;2023-02-15T01:33:25;20.42;;;5.70;;
4208;SDS011;36320;48.860;2.380;2023-02-15T01:35:58;17.60;;;5.60;;
4208;SDS011;36320;48.860;2.380;2023-02-15T01:38:24;24.92;;;6.05;;
4208;SDS011;36320;48.860;2.380;2023-02-15T01:40:53;21.88;;;6.22;;
4208;SDS011;36320;48.860;2.380;2023-02-15T01:43:40;20.23;;;5.47;;
4208;SDS011;36320;48.860;2.380;2023-02-15T01:46:06;19.92;;;6.10;;
4208;SDS011;36320;48.860;2.380;2023-02-15T01:48:33;18.05;;;5.68;;
4208;SDS011;36320;48.860;2.380;2023-02-15T01:51:00;19.92;;;5.95;;
4208;SDS011;36320;48.860;2.380;2023-02-15T01:53:28;14.73;;;4.68;;
4208;SDS011;36320;48.860;2.380;2023-02-15T01:55:57;23.90;;;5.72;;
4208;SDS011;36320;48.860;2.380;2023-02-15T01:58:25;18.75;;;5.78;;
4208;SDS011;36320;48.860;2.380;2023-02-15T02:00:52;17.83;;;5.45;;
4208;SDS011;36320;48.860;2.380;2023-02-15T02:03:20;21.08;;;6.35;;
4208;SDS011;36320;48.860;2.380;2023-02-15T02:05:48;27.48;;;5.35;;
4208;SDS011;36320;48.860;2.380;2023-02-15T02:08:15;17.67;;;4.97;;
4208;SDS011;36320;48.860;2.380;2023-02-15T02:10:41;19.73;;;6.75;;
4208;SDS011;36320;48.860;2.380;2023-02-15T02:13:07;25.25;;;6.70;;
4208;SDS011;36320;48.860;2.380;2023-02-15T02:26:22;19.83;;;6.35;;
4208;SDS011;36320;48.860;2.380;2023-02-15T02:31:31;23.53;;;7.43;;
4208;SDS011;36320;48.860;2.380;2023-02-15T02:39:16;21.45;;;5.80;;
4208;SDS011;36320;48.860;2.380;2023-02-15T02:41:51;23.80;;;5.78;;
4208;SDS011;36320;48.860;2.380;2023-02-15T02:44:24;15.23;;;4.80;;
4208;SDS011;36320;48.860;2.380;2023-02-15T02:47:08;19.37;;;5.90;;
4208;SDS011;36320;48.860;2.380;2023-02-15T02:49:38;22.42;;;7.65;;
4208;SDS011;36320;48.860;2.380;2023-02-15T02:54:50;18.77;;;5.03;;
4208;SDS011;36320;48.860;2.380;2023-02-15T02:57:16;18.50;;;6.00;;
4208;SDS011;36320;48.860;2.380;2023-02-15T02:59:45;17.65;;;5.22;;
4208;SDS011;36320;48.860;2.380;2023-02-15T03:02:13;14.25;;;4.68;;
4208;SDS011;36320;48.860;2.380;2023-02-15T03:04:44;24.37;;;5.93;;
4208;SDS011;36320;48.860;2.380;2023-02-15T03:07:13;17.77;;;6.22;;
4208;SDS011;36320;48.860;2.380;2023-02-15T03:09:47;27.35;;;6.05;;
4208;SDS011;36320;48.860;2.380;2023-02-15T03:12:14;20.10;;;5.88;;
4208;SDS011;36320;48.860;2.380;2023-02-15T03:14:42;21.85;;;5.90;;
4208;SDS011;36320;48.860;2.380;2023-02-15T03:17:08;16.85;;;5.18;;
4208;SDS011;36320;48.860;2.380;2023-02-15T03:19:36;26.13;;;6.30;;
4208;SDS011;36320;48.860;2.380;2023-02-15T03:22:04;16.33;;;5.03;;
4208;SDS011;36320;48.860;2.380;2023-02-15T03:27:03;23.98;;;6.05;;
4208;SDS011;36320;48.860;2.380;2023-02-15T03:29:30;18.60;;;5.32;;
4208;SDS011;36320;48.860;2.380;2023-02-15T03:32:01;21.02;;;5.53;;
4208;SDS011;36320;48.860;2.380;2023-02-15T03:34:28;18.73;;;5.10;;
4208;SDS011;36320;48.860;2.380;2023-02-15T03:41:55;25.30;;;6.72;;
4208;SDS011;36320;48.860;2.380;2023-02-15T03:44:30;24.75;;;5.80;;
4208;SDS011;36320;48.860;2.380;2023-02-15T03:47:04;15.60;;;5.40;;
4208;SDS011;36320;48.860;2.380;2023-02-15T03:49:37;20.17;;;5.05;;
4208;SDS011;36320;48.860;2.380;2023-02-15T03:52:04;24.80;;;6.60;;
4208;SDS011;36320;48.860;2.380;2023-02-15T03:54:33;18.98;;;6.03;;
4208;SDS011;36320;48.860;2.380;2023-02-15T03:57:18;23.45;;;6.00;;
4208;SDS011;36320;48.860;2.380;2023-02-15T04:00:09;18.30;;;5.63;;
4208;SDS011;36320;48.860;2.380;2023-02-15T04:05:23;20.23;;;5.70;;
4208;SDS011;36320;48.860;2.380;2023-02-15T04:08:16;22.25;;;5.93;;
4208;SDS011;36320;48.860;2.380;2023-02-15T04:10:43;18.63;;;4.97;;
4208;SDS011;36320;48.860;2.380;2023-02-15T04:13:29;22.85;;;6.72;;
4208;SDS011;36320;48.860;2.380;2023-02-15T04:15:56;15.30;;;5.47;;
4208;SDS011;36320;48.860;2.380;2023-02-15T04:18:29;30.77;;;6.75;;
4208;SDS011;36320;48.860;2.380;2023-02-15T04:21:14;17.00;;;5.43;;
4208;SDS011;36320;48.860;2.380;2023-02-15T04:23:59;16.70;;;5.90;;
4208;SDS011;36320;48.860;2.380;2023-02-15T04:26:43;19.30;;;5.82;;
4208;SDS011;36320;48.860;2.380;2023-02-15T04:29:09;17.05;;;5.60;;
4208;SDS011;36320;48.860;2.380;2023-02-15T04:31:35;17.60;;;5.82;;
4208;SDS011;36320;48.860;2.380;2023-02-15T04:34:01;28.25;;;6.50;;
4208;SDS011;36320;48.860;2.380;2023-02-15T04:36:27;20.07;;;6.37;;
4208;SDS011;36320;48.860;2.380;2023-02-15T04:38:54;18.15;;;5.30;;
4208;SDS011;36320;48.860;2.380;2023-02-15T04:41:19;17.58;;;5.78;;
4208;SDS011;36320;48.860;2.380;2023-02-15T04:43:45;19.45;;;5.43;;
4208;SDS011;36320;48.860;2.380;2023-02-15T04:46:11;20.20;;;5.60;;
4208;SDS011;36320;48.860;2.380;2023-02-15T04:48:38;37.80;;;6.37;;
4208;SDS011;36320;48.860;2.380;2023-02-15T04:51:07;28.77;;;6.50;;
4208;SDS011;36320;48.860;2.380;2023-02-15T04:53:34;15.10;;;5.03;;
4208;SDS011;36320;48.860;2.380;2023-02-15T04:56:00;18.73;;;5.50;;
4208;SDS011;36320;48.860;2.380;2023-02-15T04:58:26;22.20;;;7.23;;
4208;SDS011;36320;48.860;2.380;2023-02-15T05:00:56;17.20;;;5.35;;
4208;SDS011;36320;48.860;2.380;2023-02-15T05:03:22;20.98;;;6.10;;
4208;SDS011;36320;48.860;2.380;2023-02-15T05:05:48;27.30;;;7.82;;
4208;SDS011;36320;48.860;2.380;2023-02-15T05:08:14;20.40;;;5.53;;
4208;SDS011;36320;48.860;2.380;2023-02-15T05:10:40;18.35;;;5.70;;
4208;SDS011;36320;48.860;2.380;2023-02-15T05:13:06;15.27;;;5.38;;
4208;SDS011;36320;48.860;2.380;2023-02-15T05:15:32;18.52;;;6.25;;
4208;SDS011;36320;48.860;2.380;2023-02-15T05:17:58;22.75;;;6.80;;
4208;SDS011;36320;48.860;2.380;2023-02-15T05:20:24;20.10;;;6.50;;
4208;SDS011;36320;48.860;2.380;2023-02-15T05:22:53;22.42;;;6.47;;
4208;SDS011;36320;48.860;2.380;2023-02-15T05:25:19;26.10;;;7.28;;
4208;SDS011;36320;48.860;2.380;2023-02-15T05:28:04;19.05;;;5.78;;
4208;SDS011;36320;48.860;2.380;2023-02-15T05:30:46;20.57;;;4.73;;
4208;SDS011;36320;48.860;2.380;2023-02-15T05:33:12;19.30;;;5.70;;
4208;SDS011;36320;48.860;2.380;2023-02-15T05:35:38;20.17;;;6.53;;
4208;SDS011;36320;48.860;2.380;2023-02-15T05:38:04;21.02;;;7.10;;
4208;SDS011;36320;48.860;2.380;2023-02-15T05:40:30;15.85;;;5.20;;
4208;SDS011;36320;48.860;2.380;2023-02-15T05:42:56;27.52;;;6.53;;
4208;SDS011;36320;48.860;2.380;2023-02-15T05:45:23;22.65;;;5.95;;
4208;SDS011;36320;48.860;2.380;2023-02-15T05:47:49;23.90;;;7.32;;
4208;SDS011;36320;48.860;2.380;2023-02-15T05:50:15;19.98;;;7.20;;
4208;SDS011;36320;48.860;2.380;2023-02-15T05:52:41;30.92;;;6.57;;
4208;SDS011;36320;48.860;2.380;2023-02-15T05:55:07;27.30;;;6.93;;
4208;SDS011;36320;48.860;2.380;2023-02-15T05:57:34;25.75;;;6.75;;
4208;SDS011;36320;48.860;2.380;2023-02-15T06:00:00;22.73;;;6.93;;
4208;SDS011;36320;48.860;2.380;2023-02-15T06:02:29;21.33;;;6.33;;
4208;SDS011;36320;48.860;2.380;2023-02-15T06:04:55;22.43;;;6.00;;
4208;SDS011;36320;48.860;2.380;2023-02-15T06:07:21;18.20;;;6.13;;
4208;SDS011;36320;48.860;2.380;2023-02-15T06:09:47;17.65;;;5.72;;
4208;SDS011;36320;48.860;2.380;2023-02-15T06:12:13;17.13;;;6.30;;
4208;SDS011;36320;48.860;2.380;2023-02-15T06:14:39;17.30;;;5.85;;
4208;SDS011;36320;48.860;2.380;2023-02-15T06:17:05;20.48;;;6.25;;
4208;SDS011;36320;48.860;2.380;2023-02-15T06:19:31;15.40;;;4.70;;
4208;SDS011;36320;48.860;2.380;2023-02-15T06:21:57;19.67;;;6.20;;
4208;SDS011;36320;48.860;2.380;2023-02-15T06:24:23;24.13;;;6.15;;
4208;SDS011;36320;48.860;2.380;2023-02-15T06:26:50;21.05;;;6.68;;
4208;SDS011;36320;48.860;2.380;2023-02-15T06:29:16;21.58;;;6.53;;
4208;SDS011;36320;48.860;2.380;2023-02-15T06:31:42;26.17;;;6.55;;
4208;SDS011;36320;48.860;2.380;2023-02-15T06:34:08;19.80;;;6.30;;
4208;SDS011;36320;48.860;2.380;2023-02-15T06:36:34;20.27;;;6.30;;
4208;SDS011;36320;48.860;2.380;2023-02-15T06:39:00;25.63;;;7.70;;
4208;SDS011;36320;48.860;2.380;2023-02-15T06:41:27;19.65;;;5.85;;
4208;SDS011;36320;48.860;2.380;2023-02-15T06:43:53;19.60;;;5.38;;
4208;SDS011;36320;48.860;2.380;2023-02-15T06:46:19;22.63;;;6.30;;
4208;SDS011;36320;48.860;2.380;2023-02-15T06:48:45;22.85;;;6.43;;
4208;SDS011;36320;48.860;2.380;2023-02-15T06:51:11;20.02;;;4.97;;
4208;SDS011;36320;48.860;2.380;2023-02-15T06:53:37;14.82;;;5.25;;
4208;SDS011;36320;48.860;2.380;2023-02-15T06:56:07;21.17;;;6.13;;
4208;SDS011;36320;48.860;2.380;2023-02-15T06:58:34;25.70;;;6.25;;
4208;SDS011;36320;48.860;2.380;2023-02-15T07:01:00;21.80;;;6.40;;
4208;SDS011;36320;48.860;2.380;2023-02-15T07:03:29;16.30;;;5.50;;
4208;SDS011;36320;48.860;2.380;2023-02-15T07:05:56;28.13;;;7.30;;
4208;SDS011;36320;48.860;2.380;2023-02-15T07:08:23;18.95;;;6.25;;
4208;SDS011;36320;48.860;2.380;2023-02-15T07:10:49;21.67;;;6.10;;
4208;SDS011;36320;48.860;2.380;2023-02-15T07:13:15;24.90;;;5.50;;
4208;SDS011;36320;48.860;2.380;2023-02-15T07:15:41;21.23;;;7.07;;
4208;SDS011;36320;48.860;2.380;2023-02-15T07:18:10;23.67;;;6.10;;
4208;SDS011;36320;48.860;2.380;2023-02-15T07:20:36;20.00;;;6.43;;
4208;SDS011;36320;48.860;2.380;2023-02-15T07:23:06;16.45;;;5.45;;
4208;SDS011;36320;48.860;2.380;2023-02-15T07:25:33;16.60;;;6.13;;
4208;SDS011;36320;48.860;2.380;2023-02-15T07:28:00;15.35;;;5.35;;
4208;SDS011;36320;48.860;2.380;2023-02-15T07:30:27;21.05;;;6.43;;
4208;SDS011;36320;48.860;2.380;2023-02-15T07:32:59;16.40;;;5.30;;
4208;SDS011;36320;48.860;2.380;2023-02-15T07:35:50;26.60;;;7.68;;
4208;SDS011;36320;48.860;2.380;2023-02-15T07:38:17;21.23;;;5.47;;
4208;SDS011;36320;48.860;2.380;2023-02-15T07:40:44;19.63;;;6.97;;
4208;SDS011;36320;48.860;2.380;2023-02-15T07:43:10;19.17;;;8.10;;
4208;SDS011;36320;48.860;2.380;2023-02-15T07:45:36;20.48;;;6.35;;
4208;SDS011;36320;48.860;2.380;2023-02-15T07:48:03;22.00;;;5.80;;
4208;SDS011;36320;48.860;2.380;2023-02-15T07:50:29;18.10;;;5.60;;
4208;SDS011;36320;48.860;2.380;2023-02-15T07:52:55;17.33;;;5.82;;
4208;SDS011;36320;48.860;2.380;2023-02-15T07:55:22;21.02;;;6.25;;
4208;SDS011;36320;48.860;2.380;2023-02-15T07:57:49;22.88;;;6.15;;
4208;SDS011;36320;48.860;2.380;2023-02-15T08:00:16;30.27;;;6.88;;
4208;SDS011;36320;48.860;2.380;2023-02-15T08:02:48;17.70;;;5.95;;
4208;SDS011;36320;48.860;2.380;2023-02-15T08:05:41;41.63;;;12.70;;
4208;SDS011;36320;48.860;2.380;2023-02-15T08:08:10;40.58;;;13.82;;
4208;SDS011;36320;48.860;2.380;2023-02-15T08:10:59;39.10;;;14.75;;
4208;SDS011;36320;48.860;2.380;2023-02-15T08:13:44;43.58;;;14.38;;
4208;SDS011;36320;48.860;2.380;2023-02-15T08:16:23;38.90;;;14.73;;
4208;SDS011;36320;48.860;2.380;2023-02-15T08:18:51;38.90;;;13.90;;
4208;SDS011;36320;48.860;2.380;2023-02-15T08:21:17;44.00;;;15.10;;
4208;SDS011;36320;48.860;2.380;2023-02-15T08:23:43;37.47;;;14.15;;
4208;SDS011;36320;48.860;2.380;2023-02-15T08:26:09;41.33;;;14.40;;
4208;SDS011;36320;48.860;2.380;2023-02-15T08:28:35;40.97;;;14.70;;
4208;SDS011;36320;48.860;2.380;2023-02-15T08:31:06;45.57;;;14.50;;
4208;SDS011;36320;48.860;2.380;2023-02-15T08:33:33;41.28;;;14.23;;
4208;SDS011;36320;48.860;2.380;2023-02-15T08:36:07;36.83;;;13.77;;
4208;SDS011;36320;48.860;2.380;2023-02-15T08:38:33;37.05;;;13.80;;
4208;SDS011;36320;48.860;2.380;2023-02-15T08:43:41;39.20;;;14.60;;
4208;SDS011;36320;48.860;2.380;2023-02-15T08:46:09;38.60;;;14.75;;
4208;SDS011;36320;48.860;2.380;2023-02-15T08:48:36;46.97;;;16.98;;
4208;SDS011;36320;48.860;2.380;2023-02-15T08:51:09;42.50;;;15.00;;
4208;SDS011;36320;48.860;2.380;2023-02-15T08:53:39;35.00;;;14.20;;
4208;SDS011;36320;48.860;2.380;2023-02-15T08:56:07;41.15;;;15.35;;
4208;SDS011;36320;48.860;2.380;2023-02-15T08:58:36;47.03;;;15.52;;
4208;SDS011;36320;48.860;2.380;2023-02-15T09:01:12;40.20;;;13.87;;
4208;SDS011;36320;48.860;2.380;2023-02-15T09:03:42;45.72;;;15.57;;
4208;SDS011;36320;48.860;2.380;2023-02-15T09:06:10;34.47;;;14.55;;
4208;SDS011;36320;48.860;2.380;2023-02-15T09:08:37;38.90;;;14.70;;
4208;SDS011;36320;48.860;2.380;2023-02-15T09:11:07;42.47;;;15.70;;
4208;SDS011;36320;48.860;2.380;2023-02-15T09:13:35;42.13;;;14.00;;
4208;SDS011;36320;48.860;2.380;2023-02-15T09:16:02;39.13;;;14.77;;
4208;SDS011;36320;48.860;2.380;2023-02-15T09:18:29;37.60;;;14.80;;
4208;SDS011;36320;48.860;2.380;2023-02-15T09:20:56;45.50;;;14.52;;
4208;SDS011;36320;48.860;2.380;2023-02-15T09:23:23;41.80;;;14.50;;
4208;SDS011;36320;48.860;2.380;2023-02-15T09:25:49;45.70;;;15.88;;
4208;SDS011;36320;48.860;2.380;2023-02-15T09:28:15;42.45;;;14.68;;
4208;SDS011;36320;48.860;2.380;2023-02-15T09:30:41;35.78;;;14.63;;
4208;SDS011;36320;48.860;2.380;2023-02-15T09:33:10;39.85;;;14.20;;
4208;SDS011;36320;48.860;2.380;2023-02-15T09:35:37;40.70;;;15.68;;
4208;SDS011;36320;48.860;2.380;2023-02-15T09:38:03;44.10;;;15.77;;
4208;SDS011;36320;48.860;2.380;2023-02-15T09:40:32;43.35;;;15.45;;
4208;SDS011;36320;48.860;2.380;2023-02-15T10:14:11;43.72;;;15.27;;
4208;SDS011;36320;48.860;2.380;2023-02-15T10:16:54;50.50;;;17.33;;
4208;SDS011;36320;48.860;2.380;2023-02-15T10:22:04;37.95;;;15.48;;
4208;SDS011;36320;48.860;2.380;2023-02-15T10:27:11;37.97;;;14.20;;
4208;SDS011;36320;48.860;2.380;2023-02-15T10:29:39;51.13;;;16.60;;
4208;SDS011;36320;48.860;2.380;2023-02-15T10:34:46;48.72;;;16.02;;
4208;SDS011;36320;48.860;2.380;2023-02-15T10:40:13;41.88;;;15.23;;
4208;SDS011;36320;48.860;2.380;2023-02-15T10:45:30;42.55;;;14.77;;
4208;SDS011;36320;48.860;2.380;2023-02-15T11:01:27;45.97;;;15.55;;
4208;SDS011;36320;48.860;2.380;2023-02-15T11:06:42;39.60;;;15.63;;
4208;SDS011;36320;48.860;2.380;2023-02-15T11:09:14;42.95;;;16.17;;
4208;SDS011;36320;48.860;2.380;2023-02-15T11:11:45;45.97;;;16.98;;
4208;SDS011;36320;48.860;2.380;2023-02-15T11:17:05;51.90;;;17.40;;
4208;SDS011;36320;48.860;2.380;2023-02-15T11:19:37;52.72;;;15.55;;
4208;SDS011;36320;48.860;2.380;2023-02-15T11:22:06;44.42;;;16.48;;
4208;SDS011;36320;48.860;2.380;2023-02-15T11:24:35;50.55;;;18.00;;
4208;SDS011;36320;48.860;2.380;2023-02-15T11:32:32;47.55;;;18.27;;
4208;SDS011;36320;48.860;2.380;2023-02-15T11:37:37;51.10;;;18.02;;
4208;SDS011;36320;48.860;2.380;2023-02-15T11:40:12;41.33;;;15.50;;
4208;SDS011;36320;48.860;2.380;2023-02-15T11:42:40;49.90;;;16.95;;
4208;SDS011;36320;48.860;2.380;2023-02-15T11:47:42;49.03;;;17.58;;
4208;SDS011;36320;48.860;2.380;2023-02-15T11:50:12;46.13;;;18.20;;
4208;SDS011;36320;48.860;2.380;2023-02-15T11:52:41;43.95;;;17.90;;
4208;SDS011;36320;48.860;2.380;2023-02-15T11:55:14;53.70;;;17.30;;
4208;SDS011;36320;48.860;2.380;2023-02-15T11:57:44;41.70;;;17.10;;
4208;SDS011;36320;48.860;2.380;2023-02-15T12:00:27;43.42;;;16.40;;
4208;SDS011;36320;48.860;2.380;2023-02-15T12:02:59;44.67;;;16.25;;
4208;SDS011;36320;48.860;2.380;2023-02-15T12:05:27;45.10;;;17.00;;
4208;SDS011;36320;48.860;2.380;2023-02-15T12:08:05;46.75;;;17.33;;
4208;SDS011;36320;48.860;2.380;2023-02-15T12:10:36;41.67;;;16.63;;
4208;SDS011;36320;48.860;2.380;2023-02-15T12:15:37;42.03;;;15.93;;
4208;SDS011;36320;48.860;2.380;2023-02-15T12:18:05;45.13;;;16.40;;
4208;SDS011;36320;48.860;2.380;2023-02-15T12:20:32;49.47;;;19.52;;
4208;SDS011;36320;48.860;2.380;2023-02-15T12:22:59;47.45;;;15.93;;
4208;SDS011;36320;48.860;2.380;2023-02-15T12:28:38;36.13;;;14.52;;
4208;SDS011;36320;48.860;2.380;2023-02-15T12:31:07;39.08;;;15.05;;
4208;SDS011;36320;48.860;2.380;2023-02-15T12:33:36;44.53;;;16.65;;
4208;SDS011;36320;48.860;2.380;2023-02-15T12:38:48;43.92;;;16.85;;
4208;SDS011;36320;48.860;2.380;2023-02-15T12:41:27;44.20;;;14.70;;
4208;SDS011;36320;48.860;2.380;2023-02-15T12:49:24;37.90;;;15.88;;
4208;SDS011;36320;48.860;2.380;2023-02-15T12:51:51;46.70;;;17.38;;
4208;SDS011;36320;48.860;2.380;2023-02-15T12:56:53;40.97;;;15.88;;
4208;SDS011;36320;48.860;2.380;2023-02-15T12:59:19;40.05;;;15.00;;
4208;SDS011;36320;48.860;2.380;2023-02-15T13:01:45;40.10;;;15.20;;
4208;SDS011;36320;48.860;2.380;2023-02-15T13:06:51;36.92;;;14.65;;
4208;SDS011;36320;48.860;2.380;2023-02-15T13:09:19;42.38;;;16.38;;
4208;SDS011;36320;48.860;2.380;2023-02-15T13:11:47;36.53;;;15.07;;
4208;SDS011;36320;48.860;2.380;2023-02-15T13:14:20;44.72;;;16.00;;
4208;SDS011;36320;48.860;2.380;2023-02-15T13:16:48;44.00;;;15.07;;
4208;SDS011;36320;48.860;2.380;2023-02-15T13:19:16;40.63;;;14.38;;
4208;SDS011;36320;48.860;2.380;2023-02-15T13:21:46;38.83;;;15.30;;
4208;SDS011;36320;48.860;2.380;2023-02-15T13:26:58;40.78;;;13.85;;
4208;SDS011;36320;48.860;2.380;2023-02-15T13:29:26;35.13;;;14.57;;
4208;SDS011;36320;48.860;2.380;2023-02-15T13:31:53;48.65;;;15.35;;
4208;SDS011;36320;48.860;2.380;2023-02-15T13:34:22;36.55;;;13.95;;
4208;SDS011;36320;48.860;2.380;2023-02-15T13:44:59;35.15;;;14.70;;
4208;SDS011;36320;48.860;2.380;2023-02-15T13:52:39;37.38;;;16.08;;
4208;SDS011;36320;48.860;2.380;2023-02-15T14:05:45;34.85;;;14.13;;
4208;SDS011;36320;48.860;2.380;2023-02-15T14:16:00;35.28;;;12.55;;
4208;SDS011;36320;48.860;2.380;2023-02-15T14:21:09;41.17;;;13.52;;
4208;SDS011;36320;48.860;2.380;2023-02-15T14:31:21;32.60;;;13.73;;
4208;SDS011;36320;48.860;2.380;2023-02-15T14:33:55;33.87;;;13.33;;
4208;SDS011;36320;48.860;2.380;2023-02-15T14:36:25;35.35;;;12.60;;
4208;SDS011;36320;48.860;2.380;2023-02-15T14:39:18;32.73;;;12.70;;
4208;SDS011;36320;48.860;2.380;2023-02-15T14:42:12;35.60;;;13.32;;
4208;SDS011;36320;48.860;2.380;2023-02-15T14:44:47;34.50;;;13.30;;
4208;SDS011;36320;48.860;2.380;2023-02-15T14:47:18;38.00;;;12.73;;
4208;SDS011;36320;48.860;2.380;2023-02-15T14:49:45;33.72;;;13.32;;
4208;SDS011;36320;48.860;2.380;2023-02-15T14:52:13;31.27;;;13.02;;
4208;SDS011;36320;48.860;2.380;2023-02-15T15:02:00;30.90;;;12.18;;
4208;SDS011;36320;48.860;2.380;2023-02-15T15:07:19;35.60;;;12.40;;
4208;SDS011;36320;48.860;2.380;2023-02-15T15:12:42;32.22;;;12.52;;
4208;SDS011;36320;48.860;2.380;2023-02-15T15:15:50;33.13;;;12.90;;
4208;SDS011;36320;48.860;2.380;2023-02-15T15:18:07;28.83;;;12.10;;
4208;SDS011;36320;48.860;2.380;2023-02-15T15:20:48;34.60;;;12.43;;
4208;SDS011;36320;48.860;2.380;2023-02-15T15:25:41;42.90;;;13.75;;
4208;SDS011;36320;48.860;2.380;2023-02-15T15:28:10;41.53;;;13.05;;
4208;SDS011;36320;48.860;2.380;2023-02-15T15:31:00;35.17;;;13.65;;
4208;SDS011;36320;48.860;2.380;2023-02-15T15:42:06;36.85;;;12.63;;
4208;SDS011;36320;48.860;2.380;2023-02-15T15:50:16;33.83;;;12.77;;
4208;SDS011;36320;48.860;2.380;2023-02-15T15:52:51;27.35;;;11.20;;
4208;SDS011;36320;48.860;2.380;2023-02-15T15:55:20;31.52;;;11.80;;
4208;SDS011;36320;48.860;2.380;2023-02-15T15:57:50;35.80;;;11.90;;
4208;SDS011;36320;48.860;2.380;2023-02-15T16:02:53;31.02;;;11.82;;
4208;SDS011;36320;48.860;2.380;2023-02-15T16:05:23;33.53;;;11.65;;
4208;SDS011;36320;48.860;2.380;2023-02-15T16:07:49;28.55;;;10.75;;
4208;SDS011;36320;48.860;2.380;2023-02-15T16:10:22;31.33;;;12.43;;
4208;SDS011;36320;48.860;2.380;2023-02-15T16:12:49;33.70;;;11.88;;
4208;SDS011;36320;48.860;2.380;2023-02-15T16:15:17;28.38;;;11.10;;
4208;SDS011;36320;48.860;2.380;2023-02-15T16:17:45;30.17;;;11.10;;
4208;SDS011;36320;48.860;2.380;2023-02-15T16:20:14;32.37;;;12.57;;
4208;SDS011;36320;48.860;2.380;2023-02-15T16:22:43;43.92;;;11.70;;
4208;SDS011;36320;48.860;2.380;2023-02-15T16:25:28;31.93;;;10.40;;
4208;SDS011;36320;48.860;2.380;2023-02-15T16:27:56;36.30;;;11.00;;
4208;SDS011;36320;48.860;2.380;2023-02-15T16:32:49;30.30;;;11.30;;
4208;SDS011;36320;48.860;2.380;2023-02-15T16:35:18;29.43;;;10.57;;
4208;SDS011;36320;48.860;2.380;2023-02-15T16:37:45;31.15;;;11.95;;
4208;SDS011;36320;48.860;2.380;2023-02-15T16:42:51;32.95;;;10.52;;
4208;SDS011;36320;48.860;2.380;2023-02-15T16:45:18;27.90;;;11.27;;
4208;SDS011;36320;48.860;2.380;2023-02-15T16:47:46;27.65;;;10.60;;
4208;SDS011;36320;48.860;2.380;2023-02-15T16:50:22;29.25;;;11.23;;
4208;SDS011;36320;48.860;2.380;2023-02-15T16:52:49;28.77;;;9.80;;
4208;SDS011;36320;48.860;2.380;2023-02-15T16:55:22;23.95;;;9.90;;
4208;SDS011;36320;48.860;2.380;2023-02-15T16:57:48;24.42;;;10.52;;
4208;SDS011;36320;48.860;2.380;2023-02-15T17:00:35;28.98;;;10.98;;
4208;SDS011;36320;48.860;2.380;2023-02-15T17:03:05;28.65;;;9.40;;
4208;SDS011;36320;48.860;2.380;2023-02-15T17:05:32;29.17;;;10.43;;
4208;SDS011;36320;48.860;2.380;2023-02-15T17:08:04;25.25;;;9.63;;
4208;SDS011;36320;48.860;2.380;2023-02-15T17:10:32;28.05;;;10.57;;
4208;SDS011;36320;48.860;2.380;2023-02-15T17:13:10;25.23;;;10.68;;
4208;SDS011;36320;48.860;2.380;2023-02-15T17:16:08;25.90;;;10.20;;
4208;SDS011;36320;48.860;2.380;2023-02-15T17:18:33;27.45;;;10.00;;
4208;SDS011;36320;48.860;2.380;2023-02-15T17:21:00;28.80;;;9.80;;
4208;SDS011;36320;48.860;2.380;2023-02-15T17:26:00;27.45;;;10.10;;
4208;SDS011;36320;48.860;2.380;2023-02-15T17:28:30;26.67;;;10.10;;
4208;SDS011;36320;48.860;2.380;2023-02-15T17:30:57;25.42;;;9.00;;
4208;SDS011;36320;48.860;2.380;2023-02-15T17:38:29;23.88;;;9.70;;
4208;SDS011;36320;48.860;2.380;2023-02-15T17:40:55;26.13;;;9.80;;
4208;SDS011;36320;48.860;2.380;2023-02-15T17:43:23;25.27;;;10.25;;
4208;SDS011;36320;48.860;2.380;2023-02-15T17:45:49;31.80;;;9.25;;
4208;SDS011;36320;48.860;2.380;2023-02-15T17:48:21;24.58;;;9.52;;
4208;SDS011;36320;48.860;2.380;2023-02-15T17:50:48;23.40;;;10.02;;
4208;SDS011;36320;48.860;2.380;2023-02-15T17:53:16;24.15;;;9.73;;
4208;SDS011;36320;48.860;2.380;2023-02-15T17:55:43;27.08;;;9.52;;
4208;SDS011;36320;48.860;2.380;2023-02-15T17:58:13;31.83;;;10.60;;
4208;SDS011;36320;48.860;2.380;2023-02-15T18:00:43;28.80;;;10.33;;
4208;SDS011;36320;48.860;2.380;2023-02-15T18:06:22;26.48;;;9.65;;
4208;SDS011;36320;48.860;2.380;2023-02-15T18:09:11;28.48;;;10.20;;
4208;SDS011;36320;48.860;2.380;2023-02-15T18:11:55;28.15;;;10.60;;
4208;SDS011;36320;48.860;2.380;2023-02-15T18:14:22;27.58;;;10.20;;
4208;SDS011;36320;48.860;2.380;2023-02-15T18:16:48;27.50;;;10.20;;
4208;SDS011;36320;48.860;2.380;2023-02-15T18:19:16;25.35;;;9.65;;
4208;SDS011;36320;48.860;2.380;2023-02-15T18:21:43;29.98;;;9.85;;
4208;SDS011;36320;48.860;2.380;2023-02-15T18:24:19;29.73;;;10.27;;
4208;SDS011;36320;48.860;2.380;2023-02-15T18:26:51;26.30;;;10.02;;
4208;SDS011;36320;48.860;2.380;2023-02-15T18:29:17;26.75;;;10.10;;
4208;SDS011;36320;48.860;2.380;2023-02-15T18:31:47;31.25;;;11.70;;
4208;SDS011;36320;48.860;2.380;2023-02-15T18:34:24;30.02;;;11.52;;